San Antonio, Texas
Traffic Map
Current Weather Conditions
San Antonio, Texas
Clear
Clear
12°
Feels Like: 12°
Wind Chill: 12° Ceiling: Unl
Heat Index: 12° Visibility: 10mi
Dew Point: Wind: 0mph
Humidity: 50% Direction: ° ()
Pressure: 30.17in Gusts: 0mph
Raw Report DataKSKF 111458Z AUTO 00000KT 10SM CLR 12/02 A3017 RMK AO2 SLP216 T01230020 52009 $
Traffic Incident Summary
Active as of:
Severity:
Category:
InformationThere was an issue retrieving the traffic information for this location. Please try a different location or try again shortly.
Advertisements
Track Severe Weather on mobile